KTOI/TOI METAR and TAF weather

Enter ICAO airport designator
Station Type Date Time Source
KTOI METAR 2024/06/14 01:53 UTC NOAA

KTOI 140153Z AUTO 00000KT 10SM BKN070 BKN090 26/22 A2992 RMK AO2 SLP128 T02560222


Station Type Date Time Source
KTOI Decoded METAR 2024/06/14 01:53 UTC NOAA

TROY MUNICIPAL AIRPORT, AL, United States (KTOI) 31-52N 086-01W 118M
Jun 13, 2024 - 09:53 PM EDT / 2024.06.14 0153 UTC
Wind: Calm:0
Visibility: 10 mile(s):0
Sky conditions: mostly cloudy
Temperature: 78.1 F (25.6 C)
Dew Point: 72.0 F (22.2 C)
Relative Humidity: 81%
Pressure (altimeter): 29.92 in. Hg (1013 hPa)
ob: KTOI 140153Z AUTO 00000KT 10SM BKN070 BKN090 26/22 A2992 RMK AO2 SLP128 T02560222
cycle: 2

Station Type Date Time Source
KTOI TAF 2024/06/13 18:22 UTC NOAA